createdAt,value
2022-10-20T00:00:02.813Z,999.44
2022-10-20T00:01:02.814Z,999.35
2022-10-20T00:02:02.804Z,999.39
2022-10-20T00:03:02.868Z,999.39
2022-10-20T00:04:02.807Z,999.44
2022-10-20T00:05:02.784Z,999.38
2022-10-20T00:06:02.774Z,999.41
2022-10-20T00:07:02.756Z,999.42
2022-10-20T00:08:02.756Z,999.41
2022-10-20T00:09:02.837Z,999.39
2022-10-20T00:10:02.735Z,999.36
2022-10-20T00:11:02.739Z,999.34
2022-10-20T00:12:02.715Z,999.40
2022-10-20T00:13:02.718Z,999.40
2022-10-20T00:14:02.718Z,999.34
2022-10-20T00:15:02.725Z,999.37
2022-10-20T00:16:03.433Z,999.33
2022-10-20T00:17:02.671Z,999.29
2022-10-20T00:18:02.676Z,999.35
2022-10-20T00:19:02.680Z,999.31
2022-10-20T00:20:02.700Z,999.28
2022-10-20T00:21:02.646Z,999.26
2022-10-20T00:22:02.645Z,999.27
2022-10-20T00:23:02.629Z,999.23
2022-10-20T00:24:02.640Z,999.23
2022-10-20T00:25:02.620Z,999.20
2022-10-20T00:26:02.597Z,999.14
2022-10-20T00:27:02.596Z,999.14
2022-10-20T00:28:02.593Z,999.10
2022-10-20T00:30:02.675Z,999.05
2022-10-20T00:31:02.645Z,999.10
2022-10-20T00:32:03.724Z,999.11
2022-10-20T00:33:03.721Z,999.11
2022-10-20T00:34:03.712Z,999.10
2022-10-20T00:35:03.719Z,999.06
2022-10-20T00:36:03.715Z,999.12
2022-10-20T00:37:03.697Z,999.08
2022-10-20T00:38:03.691Z,999.08
2022-10-20T00:39:03.674Z,999.10
2022-10-20T00:40:03.670Z,999.04
2022-10-20T00:41:03.667Z,999.03
2022-10-20T00:42:03.661Z,999.04
2022-10-20T00:43:03.642Z,999.02
2022-10-20T00:44:03.639Z,999.05
2022-10-20T00:45:03.624Z,999.04
2022-10-20T00:46:03.619Z,999.00
2022-10-20T00:47:03.616Z,999.01
2022-10-20T00:48:04.540Z,999.02
2022-10-20T00:49:03.600Z,999.02
2022-10-20T00:50:03.598Z,998.98
2022-10-20T00:51:03.579Z,998.95
2022-10-20T00:52:03.575Z,999.06
2022-10-20T00:53:03.566Z,999.02
2022-10-20T00:54:03.569Z,999.00
2022-10-20T00:55:03.548Z,999.00
2022-10-20T00:56:03.551Z,999.02
2022-10-20T00:58:03.526Z,998.89
2022-10-20T00:59:03.524Z,998.85
2022-10-20T01:00:03.512Z,998.84
2022-10-20T01:01:03.510Z,998.83
2022-10-20T01:02:03.793Z,998.76
2022-10-20T01:03:03.486Z,998.79
2022-10-20T01:04:03.475Z,998.88
2022-10-20T01:05:03.482Z,998.86
2022-10-20T01:06:03.457Z,998.84
2022-10-20T01:07:03.466Z,998.86
2022-10-20T01:08:03.453Z,998.80
2022-10-20T01:09:03.501Z,998.82
2022-10-20T01:10:03.443Z,998.79
2022-10-20T01:11:03.413Z,998.77
2022-10-20T01:12:03.405Z,998.77
2022-10-20T01:13:03.405Z,998.73
2022-10-20T01:14:04.032Z,998.74
2022-10-20T01:15:03.396Z,998.71
2022-10-20T01:16:03.374Z,998.75
2022-10-20T01:17:03.369Z,998.69
2022-10-20T01:18:03.436Z,998.68
2022-10-20T01:19:03.368Z,998.69
2022-10-20T01:20:03.347Z,998.65
2022-10-20T01:21:03.335Z,998.61
2022-10-20T01:22:03.329Z,998.60
2022-10-20T01:23:03.337Z,998.54
2022-10-20T01:24:03.319Z,998.50
2022-10-20T01:25:03.311Z,998.55
2022-10-20T01:26:03.302Z,998.48
2022-10-20T01:27:03.294Z,998.53
2022-10-20T01:28:03.286Z,998.54
2022-10-20T01:29:03.277Z,998.58
2022-10-20T01:30:03.268Z,998.55
2022-10-20T01:31:03.275Z,998.58
2022-10-20T01:32:03.253Z,998.57
2022-10-20T01:33:03.259Z,998.57
2022-10-20T01:34:03.243Z,998.59
2022-10-20T01:35:03.227Z,998.54
2022-10-20T01:36:03.240Z,998.53
2022-10-20T01:37:03.215Z,998.53
2022-10-20T01:38:03.207Z,998.49
2022-10-20T01:39:03.204Z,998.54
2022-10-20T01:40:03.188Z,998.47
2022-10-20T01:41:03.194Z,998.49
2022-10-20T01:42:03.189Z,998.38
2022-10-20T01:43:03.156Z,998.41
2022-10-20T01:44:03.153Z,998.49
2022-10-20T01:45:04.109Z,998.36
2022-10-20T01:46:03.144Z,998.42
2022-10-20T01:47:03.142Z,998.30
2022-10-20T01:48:03.125Z,998.29
2022-10-20T01:49:03.133Z,998.27
2022-10-20T01:50:03.116Z,998.26
2022-10-20T01:51:03.098Z,998.22
2022-10-20T01:52:03.100Z,998.15
2022-10-20T01:53:03.111Z,998.14
2022-10-20T01:54:03.083Z,998.19
2022-10-20T01:55:03.162Z,998.09
2022-10-20T01:56:03.062Z,998.03
2022-10-20T01:57:03.050Z,997.98
2022-10-20T01:58:03.049Z,997.99
2022-10-20T01:59:03.037Z,997.98
2022-10-20T02:00:03.038Z,997.95
2022-10-20T02:01:03.044Z,997.93
2022-10-20T02:02:03.011Z,997.91
2022-10-20T02:03:03.005Z,997.91
2022-10-20T02:04:03.011Z,997.89
2022-10-20T02:05:02.996Z,997.92
2022-10-20T02:06:03.035Z,997.87
2022-10-20T02:07:02.982Z,997.88
2022-10-20T02:08:02.969Z,997.90
2022-10-20T02:09:02.986Z,997.88
2022-10-20T02:10:02.963Z,997.86
2022-10-20T02:11:02.946Z,997.89
2022-10-20T02:12:02.938Z,997.98
2022-10-20T02:13:02.932Z,997.90
2022-10-20T02:14:02.936Z,997.93
2022-10-20T02:15:02.921Z,997.84
2022-10-20T02:16:02.903Z,997.86
2022-10-20T02:17:03.609Z,997.84
2022-10-20T02:18:02.888Z,997.88
2022-10-20T02:19:02.902Z,997.86
2022-10-20T02:20:02.868Z,997.82
2022-10-20T02:21:02.859Z,997.84
2022-10-20T02:22:02.858Z,997.82
2022-10-20T02:23:02.890Z,997.77
2022-10-20T02:24:02.832Z,997.82
2022-10-20T02:25:02.828Z,997.84
2022-10-20T02:26:02.816Z,997.77
2022-10-20T02:27:02.821Z,997.78
2022-10-20T02:28:02.817Z,997.80
2022-10-20T02:29:02.797Z,997.79
2022-10-20T02:30:02.780Z,997.75
2022-10-20T02:31:02.776Z,997.68
2022-10-20T02:32:02.768Z,997.66
2022-10-20T02:33:02.758Z,997.68
2022-10-20T02:34:02.752Z,997.70
2022-10-20T02:35:05.104Z,997.77
2022-10-20T02:36:02.734Z,997.70
2022-10-20T02:37:02.762Z,997.71
2022-10-20T02:38:02.719Z,997.74
2022-10-20T02:39:02.705Z,997.72
2022-10-20T02:40:02.702Z,997.77
2022-10-20T02:41:02.695Z,997.77
2022-10-20T02:42:02.679Z,997.78
2022-10-20T02:43:02.672Z,997.80
2022-10-20T02:44:02.664Z,997.85
2022-10-20T02:45:02.663Z,997.85
2022-10-20T02:46:02.743Z,997.81
2022-10-20T02:47:02.643Z,997.80
2022-10-20T02:48:05.147Z,997.74
2022-10-20T02:49:03.626Z,997.76
2022-10-20T02:50:02.613Z,997.70
2022-10-20T02:51:02.615Z,997.71
2022-10-20T02:52:02.600Z,997.65
2022-10-20T02:53:02.593Z,997.73
2022-10-20T02:54:02.597Z,997.72
2022-10-20T02:55:02.578Z,997.71
2022-10-20T02:56:02.598Z,997.71
2022-10-20T02:57:02.557Z,997.75
2022-10-20T02:58:02.556Z,997.74
2022-10-20T02:59:02.551Z,997.76
2022-10-20T03:00:02.537Z,997.78
2022-10-20T03:01:02.531Z,997.77
2022-10-20T03:02:02.532Z,997.69
2022-10-20T03:03:02.516Z,997.71
2022-10-20T03:04:02.496Z,997.65
2022-10-20T03:05:02.503Z,997.65
2022-10-20T03:06:02.482Z,997.66
2022-10-20T03:07:02.470Z,997.64
2022-10-20T03:08:02.485Z,997.63
2022-10-20T03:09:02.548Z,997.59
2022-10-20T03:10:02.456Z,997.59
2022-10-20T03:11:02.462Z,997.55
2022-10-20T03:12:02.439Z,997.54
2022-10-20T03:13:03.127Z,997.55
2022-10-20T03:14:02.526Z,997.58
2022-10-20T03:15:02.417Z,997.52
2022-10-20T03:16:02.408Z,997.58
2022-10-20T03:17:02.412Z,997.54
2022-10-20T03:18:02.392Z,997.58
2022-10-20T03:19:05.320Z,997.63
2022-10-20T03:20:03.379Z,997.56
2022-10-20T03:21:02.383Z,997.57
2022-10-20T03:22:03.158Z,997.53
2022-10-20T03:23:02.349Z,997.49
2022-10-20T03:24:02.338Z,997.46
2022-10-20T03:25:02.335Z,997.39
2022-10-20T03:26:03.059Z,997.51
2022-10-20T03:27:02.322Z,997.40
2022-10-20T03:28:02.307Z,997.49
2022-10-20T03:29:02.300Z,997.44
2022-10-20T03:30:02.292Z,997.47
2022-10-20T03:31:02.307Z,997.39
2022-10-20T03:32:02.280Z,997.41
2022-10-20T03:33:02.267Z,997.35
2022-10-20T03:34:02.261Z,997.39
2022-10-20T03:35:02.245Z,997.40
2022-10-20T03:36:02.251Z,997.31
2022-10-20T03:37:02.230Z,997.31
2022-10-20T03:38:02.237Z,997.30
2022-10-20T03:39:02.219Z,997.27
2022-10-20T03:40:02.231Z,997.23
2022-10-20T03:42:03.197Z,997.13
2022-10-20T03:43:02.186Z,997.20
2022-10-20T03:44:03.053Z,997.09
2022-10-20T03:45:02.169Z,997.15
2022-10-20T03:46:02.180Z,997.09
2022-10-20T03:47:02.161Z,997.18
2022-10-20T03:48:02.144Z,997.18
2022-10-20T03:49:02.143Z,997.16
2022-10-20T03:50:02.288Z,997.05
2022-10-20T03:51:02.130Z,997.12
2022-10-20T03:52:02.113Z,997.19
2022-10-20T03:53:02.121Z,997.19
2022-10-20T03:54:02.104Z,997.15
2022-10-20T03:55:02.092Z,997.12
2022-10-20T03:56:02.083Z,997.09
2022-10-20T03:57:06.789Z,997.11
2022-10-20T03:58:04.074Z,997.14
2022-10-20T04:00:02.063Z,997.10
2022-10-20T04:01:02.041Z,997.10
2022-10-20T04:02:02.115Z,997.16
2022-10-20T04:03:02.033Z,997.13
2022-10-20T04:04:02.023Z,997.23
2022-10-20T04:05:02.012Z,997.22
2022-10-20T04:06:03.010Z,997.25
2022-10-20T04:07:02.003Z,997.22
2022-10-20T04:08:02.035Z,997.25
2022-10-20T04:09:02.061Z,997.18
2022-10-20T04:10:01.993Z,997.28
2022-10-20T04:11:01.998Z,997.26
2022-10-20T04:12:01.975Z,997.31
2022-10-20T04:13:01.960Z,997.30
2022-10-20T04:14:01.944Z,997.34
2022-10-20T04:15:01.948Z,997.27
2022-10-20T04:16:01.950Z,997.20
2022-10-20T04:17:01.935Z,997.18
2022-10-20T04:18:01.967Z,997.16
2022-10-20T04:19:01.911Z,997.20
2022-10-20T04:20:01.933Z,997.20
2022-10-20T04:21:01.903Z,997.11
2022-10-20T04:22:01.918Z,997.11
2022-10-20T04:23:01.884Z,997.07
2022-10-20T04:24:01.866Z,997.11
2022-10-20T04:25:01.854Z,997.03
2022-10-20T04:26:01.891Z,997.02
2022-10-20T04:27:01.843Z,997.05
2022-10-20T04:28:01.839Z,997.07
2022-10-20T04:29:01.852Z,997.05
2022-10-20T04:30:01.818Z,997.00
2022-10-20T04:31:01.812Z,996.99
2022-10-20T04:32:01.814Z,996.99
2022-10-20T04:33:01.805Z,997.00
2022-10-20T04:34:01.804Z,996.99
2022-10-20T04:35:01.780Z,996.94
2022-10-20T04:36:01.766Z,996.89
2022-10-20T04:37:01.762Z,996.89
2022-10-20T04:38:01.759Z,996.86
2022-10-20T04:39:01.759Z,996.92
2022-10-20T04:40:01.738Z,996.90
2022-10-20T04:41:04.011Z,996.86
2022-10-20T04:42:02.721Z,996.90
2022-10-20T04:43:01.774Z,996.84
2022-10-20T04:44:01.717Z,996.84
2022-10-20T04:45:03.659Z,996.83
2022-10-20T04:46:03.973Z,996.81
2022-10-20T04:47:02.690Z,996.90
2022-10-20T04:48:01.684Z,996.88
2022-10-20T04:49:01.689Z,996.87
2022-10-20T04:50:01.668Z,996.78
2022-10-20T04:51:01.654Z,996.83
2022-10-20T04:52:01.675Z,996.78
2022-10-20T04:53:01.636Z,996.75
2022-10-20T04:54:01.649Z,996.73
2022-10-20T04:55:01.647Z,996.74
2022-10-20T04:56:01.632Z,996.70
2022-10-20T04:57:01.663Z,996.75
2022-10-20T04:58:01.599Z,996.73
2022-10-20T04:59:01.588Z,996.78
2022-10-20T05:00:01.594Z,996.76
2022-10-20T05:01:02.132Z,996.72
2022-10-20T05:02:01.651Z,996.68
2022-10-20T05:03:01.607Z,996.68
2022-10-20T05:04:01.579Z,996.61
2022-10-20T05:05:01.541Z,996.48
2022-10-20T05:06:01.537Z,996.53
2022-10-20T05:07:01.537Z,996.52
2022-10-20T05:08:01.519Z,996.43
2022-10-20T05:09:01.671Z,996.48
2022-10-20T05:10:01.529Z,996.46
2022-10-20T05:11:01.503Z,996.42
2022-10-20T05:12:01.543Z,996.42
2022-10-20T05:13:01.481Z,996.39
2022-10-20T05:14:01.471Z,996.34
2022-10-20T05:15:01.477Z,996.39
2022-10-20T05:16:01.457Z,996.42
2022-10-20T05:17:03.228Z,996.41
2022-10-20T05:18:02.440Z,996.37
2022-10-20T05:19:01.444Z,996.35
2022-10-20T05:20:01.422Z,996.36
2022-10-20T05:21:09.069Z,996.33
2022-10-20T05:22:03.428Z,996.26
2022-10-20T05:23:01.402Z,996.24
2022-10-20T05:24:01.409Z,996.20
2022-10-20T05:25:24.472Z,996.25
2022-10-20T05:26:03.669Z,996.23
2022-10-20T05:27:01.388Z,996.17
2022-10-20T05:28:06.099Z,996.23
2022-10-20T05:29:01.365Z,996.19
2022-10-20T05:30:01.341Z,996.13
2022-10-20T05:31:01.709Z,996.15
2022-10-20T05:32:02.342Z,996.18
2022-10-20T05:33:01.325Z,996.22
2022-10-20T05:34:01.327Z,996.18
2022-10-20T05:35:01.311Z,996.18
2022-10-20T05:36:01.292Z,996.23
2022-10-20T05:37:01.301Z,996.18
2022-10-20T05:38:02.147Z,996.20
2022-10-20T05:39:01.267Z,996.15
2022-10-20T05:40:01.269Z,996.14
2022-10-20T05:41:01.251Z,996.10
2022-10-20T05:42:01.245Z,996.10
2022-10-20T05:43:01.276Z,996.10
2022-10-20T05:44:01.237Z,996.03
2022-10-20T05:45:01.226Z,996.09
2022-10-20T05:46:01.225Z,995.99
2022-10-20T05:47:01.214Z,995.93
2022-10-20T05:48:01.205Z,995.96
2022-10-20T05:49:01.198Z,995.99
2022-10-20T05:50:01.191Z,995.97
2022-10-20T05:51:01.181Z,996.01
2022-10-20T05:52:01.170Z,995.94
2022-10-20T05:53:01.173Z,995.97
2022-10-20T05:54:01.151Z,995.98
2022-10-20T05:55:01.176Z,995.95
2022-10-20T05:56:01.146Z,995.95
2022-10-20T05:57:01.208Z,995.97
2022-10-20T05:58:01.117Z,995.91
2022-10-20T05:59:01.121Z,995.92
2022-10-20T06:00:01.111Z,995.91
2022-10-20T06:01:01.096Z,995.83
2022-10-20T06:02:01.090Z,995.93
2022-10-20T06:03:01.088Z,995.92
2022-10-20T06:04:01.078Z,995.85
2022-10-20T06:05:01.079Z,995.91
2022-10-20T06:06:01.069Z,995.92
2022-10-20T06:07:01.052Z,995.86
2022-10-20T06:08:01.056Z,995.86
2022-10-20T06:09:01.104Z,995.85
2022-10-20T06:10:01.055Z,995.77
2022-10-20T06:11:01.025Z,995.76
2022-10-20T06:12:01.023Z,995.81
2022-10-20T06:13:02.005Z,995.77
2022-10-20T06:14:01.009Z,995.84
2022-10-20T06:15:01.005Z,995.85
2022-10-20T06:16:00.989Z,995.89
2022-10-20T06:17:00.995Z,995.80
2022-10-20T06:18:00.971Z,995.75
2022-10-20T06:19:00.954Z,995.83
2022-10-20T06:20:00.945Z,995.83
2022-10-20T06:21:00.947Z,995.77
2022-10-20T06:22:04.001Z,995.77
2022-10-20T06:23:02.921Z,995.78
2022-10-20T06:24:00.915Z,995.78
2022-10-20T06:25:00.947Z,995.73
2022-10-20T06:26:00.895Z,995.74
2022-10-20T06:27:02.188Z,995.75
2022-10-20T06:28:00.876Z,995.68
2022-10-20T06:29:04.276Z,995.69
2022-10-20T06:30:01.862Z,995.61
2022-10-20T06:31:00.887Z,995.62
2022-10-20T06:32:00.934Z,995.57
2022-10-20T06:33:00.840Z,995.67
2022-10-20T06:34:00.829Z,995.67
2022-10-20T06:35:00.833Z,995.67
2022-10-20T06:36:00.817Z,995.68
2022-10-20T06:37:00.804Z,995.67
2022-10-20T06:38:00.863Z,995.67
2022-10-20T06:39:00.785Z,995.60
2022-10-20T06:40:00.792Z,995.63
2022-10-20T06:41:01.575Z,995.59
2022-10-20T06:42:00.764Z,995.67
2022-10-20T06:43:00.761Z,995.71
2022-10-20T06:44:00.754Z,995.72
2022-10-20T06:45:00.743Z,995.67
2022-10-20T06:46:00.763Z,995.67
2022-10-20T06:47:01.599Z,995.70
2022-10-20T06:48:00.712Z,995.63
2022-10-20T06:49:00.705Z,995.59
2022-10-20T06:50:00.691Z,995.54
2022-10-20T06:51:01.589Z,995.55
2022-10-20T06:52:00.718Z,995.59
2022-10-20T06:53:00.664Z,995.54
2022-10-20T06:54:01.587Z,995.53
2022-10-20T06:55:00.668Z,995.50
2022-10-20T06:56:00.661Z,995.44
2022-10-20T06:57:00.666Z,995.40
2022-10-20T06:58:00.624Z,995.43
2022-10-20T06:59:00.619Z,995.49
2022-10-20T07:00:00.800Z,995.51
2022-10-20T07:01:00.731Z,995.54
2022-10-20T07:02:00.670Z,995.48
2022-10-20T07:03:00.596Z,995.39
2022-10-20T07:04:00.581Z,995.41
2022-10-20T07:05:00.578Z,995.32
2022-10-20T07:06:00.559Z,995.33
2022-10-20T07:07:00.558Z,995.36
2022-10-20T07:08:00.597Z,995.38
2022-10-20T07:09:00.589Z,995.37
2022-10-20T07:10:00.562Z,995.44
2022-10-20T07:11:00.527Z,995.48
2022-10-20T07:12:00.526Z,995.50
2022-10-20T07:13:00.512Z,995.49
2022-10-20T07:14:00.499Z,995.45
2022-10-20T07:15:00.488Z,995.44
2022-10-20T07:16:00.484Z,995.48
2022-10-20T07:17:00.484Z,995.54
2022-10-20T07:18:00.484Z,995.57
2022-10-20T07:19:00.458Z,995.60
2022-10-20T07:20:00.454Z,995.60
2022-10-20T07:21:00.445Z,995.61
2022-10-20T07:22:00.437Z,995.56
2022-10-20T07:23:00.430Z,995.59
2022-10-20T07:24:00.438Z,995.54
2022-10-20T07:25:00.449Z,995.60
2022-10-20T07:26:00.412Z,995.58
2022-10-20T07:27:00.396Z,995.59
2022-10-20T07:28:00.391Z,995.61
2022-10-20T07:29:01.068Z,995.50
2022-10-20T07:30:00.383Z,995.49
2022-10-20T07:31:00.358Z,995.55
2022-10-20T07:32:02.039Z,995.54
2022-10-20T07:33:00.349Z,995.60
2022-10-20T07:34:13.086Z,995.62
2022-10-20T07:35:02.347Z,995.61
2022-10-20T07:36:00.337Z,995.61
2022-10-20T07:37:00.316Z,995.55
2022-10-20T07:38:00.339Z,995.62
2022-10-20T07:39:00.306Z,995.59
2022-10-20T07:40:00.296Z,995.53
2022-10-20T07:41:01.488Z,995.60
2022-10-20T07:42:00.279Z,995.59
2022-10-20T07:43:00.268Z,995.61
2022-10-20T07:44:00.260Z,995.54
2022-10-20T07:45:00.278Z,995.61
2022-10-20T07:46:00.297Z,995.57
2022-10-20T07:47:00.236Z,995.61
2022-10-20T07:48:00.218Z,995.57
2022-10-20T07:49:23.991Z,995.57
2022-10-20T07:50:02.216Z,995.54
2022-10-20T07:51:00.216Z,995.63
2022-10-20T07:52:00.239Z,995.53
2022-10-20T07:53:00.188Z,995.51
2022-10-20T07:54:00.762Z,995.53
2022-10-20T07:55:12.323Z,995.52
2022-10-20T07:56:02.155Z,995.48
2022-10-20T07:57:00.163Z,995.49
2022-10-20T07:58:00.150Z,995.47
2022-10-20T07:59:00.158Z,995.41
2022-10-20T08:00:00.162Z,995.39
2022-10-20T08:01:00.135Z,995.39
2022-10-20T08:02:00.562Z,995.36
2022-10-20T08:03:00.109Z,995.31
2022-10-20T08:04:00.100Z,995.24
2022-10-20T08:05:00.098Z,995.29
2022-10-20T08:06:00.121Z,995.28
2022-10-20T08:07:00.083Z,995.31
2022-10-20T08:08:00.063Z,995.35
2022-10-20T08:09:00.183Z,995.38
2022-10-20T08:10:00.053Z,995.42
2022-10-20T08:11:00.042Z,995.39
2022-10-20T08:12:00.041Z,995.39
2022-10-20T08:13:00.019Z,995.40
2022-10-20T08:14:00.606Z,995.40
2022-10-20T08:15:00.026Z,995.44
2022-10-20T08:16:03.064Z,995.40
2022-10-20T08:17:01.662Z,995.42
2022-10-20T08:17:59.982Z,995.37
2022-10-20T08:19:05.573Z,995.41
2022-10-20T08:20:03.076Z,995.44
2022-10-20T08:20:59.957Z,995.42
2022-10-20T08:21:59.947Z,995.41
2022-10-20T08:22:59.938Z,995.47
2022-10-20T08:23:59.931Z,995.41
2022-10-20T08:25:00.555Z,995.38
2022-10-20T08:25:59.925Z,995.37
2022-10-20T08:26:59.954Z,995.41
2022-10-20T08:27:59.952Z,995.39
2022-10-20T08:28:59.888Z,995.32
2022-10-20T08:30:06.258Z,995.33
2022-10-20T08:31:01.883Z,995.28
2022-10-20T08:31:59.906Z,995.31
2022-10-20T08:32:59.863Z,995.34
2022-10-20T08:33:59.875Z,995.31
2022-10-20T08:34:59.848Z,995.33
2022-10-20T08:35:59.854Z,995.30
2022-10-20T08:36:59.840Z,995.25
2022-10-20T08:37:59.824Z,995.29
2022-10-20T08:39:03.485Z,995.24
2022-10-20T08:40:01.797Z,995.16
2022-10-20T08:40:59.805Z,995.14
2022-10-20T08:42:09.050Z,995.11
2022-10-20T08:43:01.784Z,995.16
2022-10-20T08:43:59.779Z,995.16
2022-10-20T08:44:59.763Z,995.10
2022-10-20T08:45:59.845Z,995.03
2022-10-20T08:46:59.756Z,995.05
2022-10-20T08:47:59.747Z,995.07
2022-10-20T08:49:00.674Z,995.11
2022-10-20T08:50:00.727Z,995.08
2022-10-20T08:50:59.726Z,995.11
2022-10-20T08:51:59.711Z,995.19
2022-10-20T08:52:59.709Z,995.12
2022-10-20T08:53:59.806Z,995.15
2022-10-20T08:54:59.698Z,995.13
2022-10-20T08:55:59.693Z,995.12
2022-10-20T08:56:59.680Z,995.13
2022-10-20T08:57:59.674Z,995.09
2022-10-20T08:58:59.653Z,995.11
2022-10-20T08:59:59.633Z,995.13
2022-10-20T09:01:00.655Z,995.06
2022-10-20T09:01:59.730Z,994.99
2022-10-20T09:02:59.618Z,994.95
2022-10-20T09:03:59.635Z,995.00
2022-10-20T09:04:59.667Z,995.00
2022-10-20T09:05:59.592Z,995.01
2022-10-20T09:06:59.589Z,995.05
2022-10-20T09:07:59.587Z,995.04
2022-10-20T09:08:59.615Z,995.05
2022-10-20T09:09:59.572Z,995.04
2022-10-20T09:10:59.557Z,995.03
2022-10-20T09:11:59.559Z,995.07
2022-10-20T09:12:59.537Z,995.09
2022-10-20T09:13:59.525Z,995.08
2022-10-20T09:14:59.599Z,995.07
2022-10-20T09:15:59.533Z,995.03
2022-10-20T09:17:00.844Z,995.05
2022-10-20T09:18:00.504Z,995.04
2022-10-20T09:18:59.492Z,994.94
2022-10-20T09:19:59.506Z,994.88
2022-10-20T09:20:59.473Z,994.90
2022-10-20T09:21:59.476Z,994.88
2022-10-20T09:23:01.419Z,994.93
2022-10-20T09:24:00.451Z,994.87
2022-10-20T09:24:59.460Z,994.78
2022-10-20T09:25:59.433Z,994.75
2022-10-20T09:27:00.265Z,994.80
2022-10-20T09:28:00.415Z,994.74
2022-10-20T09:29:12.357Z,994.72
2022-10-20T09:30:01.408Z,994.72
2022-10-20T09:30:59.392Z,994.71
2022-10-20T09:32:11.414Z,994.70
2022-10-20T09:33:01.756Z,994.67
2022-10-20T09:33:59.420Z,994.69
2022-10-20T09:34:59.364Z,994.55
2022-10-20T09:37:07.295Z,994.49
2022-10-20T09:38:07.299Z,994.49
2022-10-20T09:39:07.279Z,994.43
2022-10-20T09:40:08.364Z,994.47
2022-10-20T09:41:09.372Z,994.40
2022-10-20T09:42:08.398Z,994.38
2022-10-20T09:43:08.485Z,994.39
2022-10-20T09:44:08.343Z,994.44
2022-10-20T09:45:08.419Z,994.47
2022-10-20T09:46:08.440Z,994.47
2022-10-20T09:47:08.309Z,994.50
2022-10-20T09:48:08.318Z,994.44
2022-10-20T09:49:08.345Z,994.43
2022-10-20T09:50:09.564Z,994.41
2022-10-20T09:51:08.303Z,994.35
2022-10-20T09:52:08.288Z,994.36
2022-10-20T09:53:08.281Z,994.31
2022-10-20T09:54:08.260Z,994.26
2022-10-20T09:55:09.244Z,994.25
2022-10-20T09:56:08.249Z,994.22
2022-10-20T09:57:08.284Z,994.27
2022-10-20T09:58:08.251Z,994.33
2022-10-20T09:59:08.243Z,994.27
2022-10-20T10:00:25.235Z,994.29
2022-10-20T10:01:10.319Z,994.26
2022-10-20T10:02:08.271Z,994.26
2022-10-20T10:03:08.187Z,994.26
2022-10-20T10:04:11.006Z,994.28
2022-10-20T10:05:11.070Z,994.12
2022-10-20T10:06:08.165Z,994.18
2022-10-20T10:07:08.143Z,994.03
2022-10-20T10:08:08.133Z,994.00
2022-10-20T10:09:08.199Z,993.96
2022-10-20T10:10:08.815Z,993.97
2022-10-20T10:11:08.127Z,993.97
2022-10-20T10:12:08.694Z,994.10
2022-10-20T10:13:08.118Z,994.11
2022-10-20T10:14:08.092Z,994.10
2022-10-20T10:15:08.102Z,994.13
2022-10-20T10:16:08.065Z,994.09
2022-10-20T10:17:08.077Z,994.10
2022-10-20T10:18:08.095Z,994.06
2022-10-20T10:19:08.086Z,994.09
2022-10-20T10:20:08.054Z,994.10
2022-10-20T10:21:08.083Z,994.04
2022-10-20T10:22:08.044Z,994.03
2022-10-20T10:23:08.027Z,994.10
2022-10-20T10:24:08.008Z,994.11
2022-10-20T10:25:07.996Z,994.15
2022-10-20T10:26:07.997Z,994.06
2022-10-20T10:27:08.683Z,994.02
2022-10-20T10:28:08.036Z,993.97
2022-10-20T10:29:07.963Z,993.95
2022-10-20T10:30:07.962Z,993.87
2022-10-20T10:31:07.950Z,993.91
2022-10-20T10:32:10.588Z,993.95
2022-10-20T10:33:07.942Z,993.93
2022-10-20T10:34:07.918Z,993.96
2022-10-20T10:35:07.921Z,993.93
2022-10-20T10:36:08.942Z,993.90
2022-10-20T10:37:07.937Z,993.88
2022-10-20T10:38:07.925Z,993.90
2022-10-20T10:39:07.910Z,993.83
2022-10-20T10:40:07.865Z,993.78
2022-10-20T10:41:07.856Z,993.79
2022-10-20T10:42:07.869Z,993.78
2022-10-20T10:43:07.864Z,993.71
2022-10-20T10:44:07.866Z,993.71
2022-10-20T10:45:08.669Z,993.67
2022-10-20T10:46:07.857Z,993.69
2022-10-20T10:47:07.834Z,993.69
2022-10-20T10:48:07.830Z,993.80
2022-10-20T10:49:08.695Z,993.84
2022-10-20T10:50:08.178Z,993.92
2022-10-20T10:52:15.540Z,993.92
2022-10-20T10:53:15.510Z,993.89
2022-10-20T10:54:15.506Z,993.93
2022-10-20T10:55:30.525Z,993.98
2022-10-20T10:56:18.585Z,993.92
2022-10-20T10:57:16.573Z,993.94
2022-10-20T10:58:16.580Z,993.91
2022-10-20T10:59:16.560Z,993.88
2022-10-20T11:00:16.562Z,993.90
2022-10-20T11:01:16.669Z,993.83
2022-10-20T11:02:17.486Z,993.80
2022-10-20T11:03:16.542Z,993.81
2022-10-20T11:04:16.533Z,993.79
2022-10-20T11:06:17.524Z,993.73
2022-10-20T11:07:16.509Z,993.67
2022-10-20T11:08:16.485Z,993.68
2022-10-20T11:09:16.505Z,993.71
2022-10-20T11:10:16.522Z,993.71
2022-10-20T11:11:16.537Z,993.71
2022-10-20T11:12:16.582Z,993.70
2022-10-20T11:13:16.453Z,993.73
2022-10-20T11:14:16.554Z,993.72
2022-10-20T11:15:16.568Z,993.62
2022-10-20T11:16:17.396Z,993.73
2022-10-20T11:17:16.453Z,993.71
2022-10-20T11:18:16.420Z,993.73
2022-10-20T11:19:16.410Z,993.72
2022-10-20T11:20:16.404Z,993.69
2022-10-20T11:21:16.382Z,993.60
2022-10-20T11:22:16.381Z,993.58
2022-10-20T11:23:16.365Z,993.55
2022-10-20T11:24:16.359Z,993.53
2022-10-20T11:25:16.349Z,993.56
2022-10-20T11:26:16.336Z,993.58
2022-10-20T11:27:16.341Z,993.58
2022-10-20T11:28:16.323Z,993.60
2022-10-20T11:29:16.334Z,993.59
2022-10-20T11:30:16.310Z,993.57
2022-10-20T11:31:16.296Z,993.51
2022-10-20T11:32:16.310Z,993.51
2022-10-20T11:33:16.279Z,993.47
2022-10-20T11:34:16.278Z,993.50
2022-10-20T11:35:16.341Z,993.45
2022-10-20T11:36:16.257Z,993.47
2022-10-20T11:37:16.257Z,993.50
2022-10-20T11:38:16.262Z,993.45
2022-10-20T11:39:16.896Z,993.42
2022-10-20T11:40:16.234Z,993.35
2022-10-20T11:41:16.227Z,993.30
2022-10-20T11:42:16.220Z,993.30
2022-10-20T11:43:16.219Z,993.34
2022-10-20T11:44:16.201Z,993.32
2022-10-20T11:45:16.233Z,993.33
2022-10-20T11:46:16.981Z,993.29
2022-10-20T11:47:16.176Z,993.29
2022-10-20T11:48:16.180Z,993.28
2022-10-20T11:49:16.161Z,993.27
2022-10-20T11:50:16.190Z,993.21
2022-10-20T11:51:16.168Z,993.18
2022-10-20T11:52:16.143Z,993.15
2022-10-20T11:53:16.137Z,993.15
2022-10-20T11:54:16.130Z,993.11
2022-10-20T11:55:16.118Z,993.10
2022-10-20T11:56:16.116Z,993.21
2022-10-20T11:57:16.107Z,993.15
2022-10-20T11:58:17.907Z,993.07
2022-10-20T11:59:16.093Z,993.11
2022-10-20T12:00:16.109Z,993.22
2022-10-20T12:01:16.075Z,993.22
2022-10-20T12:02:16.120Z,993.18
2022-10-20T12:03:16.984Z,993.14
2022-10-20T12:04:16.054Z,993.15
2022-10-20T12:05:16.038Z,993.17
2022-10-20T12:06:16.041Z,993.12
2022-10-20T12:07:16.033Z,993.08
2022-10-20T12:08:29.399Z,993.12
2022-10-20T12:09:20.001Z,993.09
2022-10-20T12:10:17.035Z,993.05
2022-10-20T12:11:16.943Z,993.07
2022-10-20T12:12:16.987Z,993.11
2022-10-20T12:13:15.993Z,993.14
2022-10-20T12:14:15.995Z,993.12
2022-10-20T12:15:18.927Z,993.13
2022-10-20T12:16:16.965Z,993.14
2022-10-20T12:17:16.489Z,993.18
2022-10-20T12:18:15.958Z,993.19
2022-10-20T12:19:15.930Z,993.23
2022-10-20T12:20:16.929Z,993.25
2022-10-20T12:21:15.933Z,993.28
2022-10-20T12:22:15.927Z,993.31
2022-10-20T12:23:15.915Z,993.35
2022-10-20T12:24:15.894Z,993.31
2022-10-20T12:25:15.886Z,993.28
2022-10-20T12:26:15.885Z,993.29
2022-10-20T12:27:15.889Z,993.32
2022-10-20T12:28:15.872Z,993.32
2022-10-20T12:29:15.880Z,993.21
2022-10-20T12:30:15.861Z,993.28
2022-10-20T12:31:15.851Z,993.27
2022-10-20T12:32:15.844Z,993.25
2022-10-20T12:33:15.826Z,993.22
2022-10-20T12:34:15.825Z,993.24
2022-10-20T12:35:15.831Z,993.19